Time;durP1;ratioP1;P1;durP2;ratioP2;P2;SDS_P1;SDS_P2;PMS_P1;PMS_P2;Temp;Humidity;BMP_temperature;BMP_pressure;BME280_temperature;BME280_humidity;BME280_pressure;Samples;Min_cycle;Max_cycle;Signal;HPM_P1;HPM_P2
2024/04/02 00:01:05;;;;;;;12.70;1.00;;;9.50;99.60;;;;;;5018950;28;20201;-82
2024/04/02 00:03:31;;;;;;;12.50;1.05;;;9.50;99.90;;;;;;5036960;28;20174;-82
2024/04/02 00:05:57;;;;;;;14.50;1.10;;;9.50;99.90;;;;;;5019463;28;20554;-82
2024/04/02 00:08:23;;;;;;;13.00;1.10;;;9.40;99.90;;;;;;5036375;28;20257;-82
2024/04/02 00:10:48;;;;;;;14.10;1.57;;;9.40;99.90;;;;;;5035894;28;20451;-82
2024/04/02 00:13:15;;;;;;;12.70;1.20;;;9.50;99.90;;;;;;5035798;28;20196;-82
2024/04/02 00:15:48;;;;;;;13.20;1.40;;;9.50;99.90;;;;;;5036502;28;20793;-82
2024/04/02 00:18:15;;;;;;;13.13;1.25;;;9.50;99.90;;;;;;5036034;28;20161;-82
2024/04/02 00:20:42;;;;;;;20.13;1.20;;;9.50;99.90;;;;;;5036466;28;20170;-82
2024/04/02 00:23:08;;;;;;;13.20;1.45;;;9.40;99.90;;;;;;5036202;28;20185;-82
2024/04/02 00:25:35;;;;;;;14.32;1.70;;;9.40;99.90;;;;;;5036402;28;20193;-82
2024/04/02 00:28:00;;;;;;;13.93;1.05;;;9.40;99.90;;;;;;5036029;28;20252;-82
2024/04/02 00:30:28;;;;;;;13.57;0.93;;;9.40;99.90;;;;;;5018394;28;20247;-82
2024/04/02 00:32:55;;;;;;;13.05;1.60;;;9.40;99.90;;;;;;5035746;28;20300;-82
2024/04/02 00:35:20;;;;;;;13.43;1.10;;;9.30;99.90;;;;;;5035862;28;20177;-82
2024/04/02 00:37:47;;;;;;;16.00;1.53;;;9.30;99.90;;;;;;5018382;28;20181;-82
2024/04/02 00:40:13;;;;;;;13.02;1.10;;;9.30;99.90;;;;;;5035915;28;20173;-82
2024/04/02 00:42:39;;;;;;;14.35;1.80;;;9.20;99.90;;;;;;5036250;28;20190;-82
2024/04/02 00:45:05;;;;;;;15.43;1.33;;;9.30;99.90;;;;;;5017883;28;20200;-82
2024/04/02 00:47:32;;;;;;;13.60;1.47;;;9.30;99.90;;;;;;5036200;28;20166;-81
2024/04/02 00:49:59;;;;;;;13.30;1.35;;;9.30;99.90;;;;;;5018206;28;20409;-81
2024/04/02 00:52:25;;;;;;;13.30;1.58;;;9.30;99.90;;;;;;5035696;28;20186;-81
2024/04/02 00:54:51;;;;;;;13.80;1.40;;;9.20;99.90;;;;;;5035304;28;20186;-81
2024/04/02 00:57:16;;;;;;;14.27;1.43;;;9.20;99.90;;;;;;5036623;28;20459;-82
2024/04/02 00:59:42;;;;;;;14.13;1.10;;;9.20;99.90;;;;;;5017795;28;20416;-82
2024/04/02 01:02:08;;;;;;;15.00;1.60;;;9.20;99.90;;;;;;5035724;28;20267;-82
2024/04/02 01:04:34;;;;;;;13.10;1.37;;;9.20;99.90;;;;;;5035564;28;20396;-82
2024/04/02 01:07:02;;;;;;;12.95;1.15;;;9.20;99.90;;;;;;5035949;28;20165;-82
2024/04/02 01:09:29;;;;;;;13.13;1.45;;;9.20;99.90;;;;;;5035546;28;20162;-82
2024/04/02 01:11:56;;;;;;;14.95;1.40;;;9.20;99.90;;;;;;5017716;28;20186;-82
2024/04/02 01:14:21;;;;;;;14.45;1.30;;;9.20;99.90;;;;;;5035139;28;20161;-82
2024/04/02 01:16:47;;;;;;;14.10;1.30;;;9.20;99.90;;;;;;5035772;28;20515;-82
2024/04/02 01:19:12;;;;;;;14.53;1.17;;;9.20;99.90;;;;;;5035826;28;20170;-82
2024/04/02 01:21:39;;;;;;;12.60;1.10;;;9.20;99.90;;;;;;5017288;28;20242;-82
2024/04/02 01:24:05;;;;;;;14.45;1.20;;;9.10;99.90;;;;;;5035293;28;20197;-82
2024/04/02 01:26:31;;;;;;;12.65;1.23;;;9.20;99.90;;;;;;5017817;28;20622;-82
2024/04/02 01:29:03;;;;;;;12.30;1.00;;;9.10;99.90;;;;;;5017628;28;20184;-82
2024/04/02 01:31:30;;;;;;;13.38;1.20;;;9.20;99.90;;;;;;5017485;28;20197;-82
2024/04/02 01:33:56;;;;;;;12.45;1.00;;;9.10;99.90;;;;;;5017687;28;20259;-82
2024/04/02 01:36:22;;;;;;;13.48;1.10;;;9.00;99.90;;;;;;5035417;28;20185;-82
2024/04/02 01:38:47;;;;;;;12.90;1.10;;;9.00;99.90;;;;;;5035071;28;20166;-82
2024/04/02 01:41:13;;;;;;;12.23;1.00;;;9.00;99.90;;;;;;5017942;28;20803;-82
2024/04/02 01:43:39;;;;;;;12.57;1.17;;;9.00;99.90;;;;;;5035530;28;20204;-82
2024/04/02 01:46:05;;;;;;;13.23;1.30;;;9.00;99.90;;;;;;5017113;28;20901;-82
2024/04/02 01:48:30;;;;;;;12.90;1.20;;;9.00;99.90;;;;;;5035279;28;20171;-82
2024/04/02 01:50:56;;;;;;;14.10;1.17;;;9.00;99.90;;;;;;5035267;28;20174;-82
2024/04/02 01:53:22;;;;;;;12.40;1.10;;;9.00;99.90;;;;;;5017848;28;20609;-82
2024/04/02 01:55:48;;;;;;;12.83;1.17;;;9.00;99.90;;;;;;5017611;28;20224;-82
2024/04/02 01:58:13;;;;;;;14.80;1.47;;;9.00;99.90;;;;;;5035135;28;20169;-82
2024/04/02 02:00:39;;;;;;;13.23;1.23;;;8.90;99.90;;;;;;5035049;28;20643;-82
2024/04/02 02:03:05;;;;;;;12.37;1.13;;;8.90;99.90;;;;;;5035683;28;20190;-82
2024/04/02 02:05:31;;;;;;;13.23;1.10;;;8.90;99.90;;;;;;5034782;28;20240;-82
2024/04/02 02:07:57;;;;;;;13.88;1.10;;;8.90;99.90;;;;;;5034619;28;20244;-82
2024/04/02 02:10:22;;;;;;;15.20;1.43;;;8.90;99.90;;;;;;5034909;28;20566;-82
2024/04/02 02:12:48;;;;;;;13.83;1.57;;;8.80;99.90;;;;;;5035145;28;20416;-82
2024/04/02 02:15:14;;;;;;;13.80;1.20;;;8.90;99.90;;;;;;5017293;28;20185;-82
2024/04/02 02:17:39;;;;;;;16.47;2.03;;;8.90;99.90;;;;;;5034991;28;20509;-82
2024/04/02 02:20:05;;;;;;;14.77;1.63;;;8.90;99.90;;;;;;5035611;28;20170;-82
2024/04/02 02:22:34;;;;;;;13.23;1.63;;;8.90;99.90;;;;;;5034767;28;20189;-82
2024/04/02 02:25:00;;;;;;;13.15;1.50;;;8.80;99.90;;;;;;5034932;28;20184;-82
2024/04/02 02:27:25;;;;;;;21.10;1.47;;;8.80;99.90;;;;;;5034756;28;20166;-82
2024/04/02 02:29:51;;;;;;;13.60;1.43;;;8.80;99.90;;;;;;5035179;28;20154;-82
2024/04/02 02:32:16;;;;;;;15.70;1.50;;;8.80;99.90;;;;;;5034578;28;20186;-82
2024/04/02 02:34:42;;;;;;;13.20;1.53;;;8.80;99.90;;;;;;5035483;28;20276;-82
2024/04/02 02:37:08;;;;;;;22.20;1.73;;;8.70;99.90;;;;;;5038134;28;20284;-82
2024/04/02 02:39:33;;;;;;;12.90;1.57;;;8.70;99.90;;;;;;5038226;28;20292;-82
2024/04/02 02:41:59;;;;;;;13.70;1.50;;;8.80;99.90;;;;;;5020194;28;20181;-82
2024/04/02 02:44:25;;;;;;;15.33;1.80;;;8.80;99.90;;;;;;5038443;28;20427;-82
2024/04/02 02:46:50;;;;;;;13.03;1.30;;;8.80;99.90;;;;;;5020792;28;20209;-81
2024/04/02 02:49:16;;;;;;;12.83;1.10;;;8.80;99.90;;;;;;5020612;28;20260;-82
2024/04/02 02:51:42;;;;;;;21.63;2.57;;;8.70;99.90;;;;;;5020271;28;20248;-82
2024/04/02 02:54:07;;;;;;;14.60;1.67;;;8.80;99.90;;;;;;5020338;28;20170;-82
2024/04/02 02:56:33;;;;;;;15.10;1.77;;;8.70;99.90;;;;;;5038510;28;20170;-82
2024/04/02 02:58:58;;;;;;;13.00;1.30;;;8.70;99.90;;;;;;5021187;28;20185;-82
2024/04/02 03:01:24;;;;;;;17.57;1.60;;;8.70;99.90;;;;;;5038279;28;20197;-82
2024/04/02 03:03:53;;;;;;;13.00;1.20;;;8.70;99.90;;;;;;5038183;28;20256;-82
2024/04/02 03:06:19;;;;;;;13.27;1.55;;;8.70;99.90;;;;;;5020315;28;20201;-82
2024/04/02 03:08:45;;;;;;;13.68;1.55;;;8.80;99.90;;;;;;5037752;28;20169;-82
2024/04/02 03:11:11;;;;;;;14.43;1.50;;;8.80;99.90;;;;;;5037931;28;20182;-82
2024/04/02 03:13:37;;;;;;;13.10;1.27;;;8.70;99.90;;;;;;5038166;28;20241;-82
2024/04/02 03:16:03;;;;;;;16.10;1.58;;;8.70;99.90;;;;;;5036931;28;20173;-82
2024/04/02 03:18:30;;;;;;;14.38;1.52;;;8.70;99.90;;;;;;5036295;28;20166;-82
2024/04/02 03:20:56;;;;;;;15.23;1.65;;;8.80;99.90;;;;;;5036081;28;20181;-82
2024/04/02 03:23:22;;;;;;;15.00;1.98;;;8.90;99.90;;;;;;5036365;28;20168;-82
2024/04/02 03:26:03;;;;;;;12.53;1.27;;;8.90;99.90;;;;;;5035971;28;20193;-82
2024/04/02 03:28:30;;;;;;;12.48;1.10;;;8.90;99.90;;;;;;5036011;28;20468;-81
2024/04/02 03:31:00;;;;;;;12.55;1.23;;;9.00;99.90;;;;;;5018400;28;20224;-81
2024/04/02 03:33:26;;;;;;;14.77;1.33;;;9.00;99.90;;;;;;5036525;28;20166;-82
2024/04/02 03:35:53;;;;;;;14.60;1.60;;;9.00;99.90;;;;;;5036028;28;20173;-81
2024/04/02 03:38:18;;;;;;;13.27;1.10;;;9.10;99.90;;;;;;5035990;28;20189;-81
2024/04/02 03:40:45;;;;;;;12.60;1.10;;;9.10;99.90;;;;;;5035947;28;20187;-81
2024/04/02 03:43:10;;;;;;;17.58;3.30;;;9.10;99.90;;;;;;5018294;28;20188;-82
2024/04/02 03:45:42;;;;;;;12.73;1.30;;;9.20;99.90;;;;;;5035534;28;20201;-82
2024/04/02 03:48:09;;;;;;;13.98;1.40;;;9.20;99.90;;;;;;5035453;28;20162;-80
2024/04/02 03:50:36;;;;;;;16.52;1.38;;;9.20;99.90;;;;;;5018029;28;20166;-82
2024/04/02 03:53:02;;;;;;;14.45;1.27;;;9.20;99.90;;;;;;5035501;28;20180;-82
2024/04/02 03:55:33;;;;;;;15.40;1.60;;;9.20;99.90;;;;;;5035744;28;20253;-82
2024/04/02 03:57:59;;;;;;;13.55;1.30;;;9.20;99.90;;;;;;5018190;28;20535;-82
2024/04/02 04:00:24;;;;;;;13.97;1.57;;;9.30;99.90;;;;;;5035500;28;20169;-82
2024/04/02 04:02:50;;;;;;;14.37;1.30;;;9.30;99.90;;;;;;5035889;28;20201;-82
2024/04/02 04:05:16;;;;;;;12.90;1.47;;;9.30;99.90;;;;;;5035308;28;20579;-82
2024/04/02 04:07:41;;;;;;;12.60;1.10;;;9.30;99.90;;;;;;5035295;28;20158;-82
2024/04/02 04:10:07;;;;;;;13.93;1.20;;;9.30;99.90;;;;;;5035787;28;20640;-82
2024/04/02 04:12:32;;;;;;;12.30;1.00;;;9.30;99.90;;;;;;5035945;28;20594;-82
2024/04/02 04:14:58;;;;;;;13.65;1.35;;;9.30;99.90;;;;;;4987604;28;1195568;-82
2024/04/02 04:17:26;;;;;;;12.90;1.00;;;9.30;99.90;;;;;;5025553;28;20177;-81
2024/04/02 04:19:54;;;;;;;12.80;1.02;;;9.30;99.90;;;;;;5036485;28;20170;-82
2024/04/02 04:22:19;;;;;;;12.60;1.20;;;9.30;99.90;;;;;;5036303;28;20188;-82
2024/04/02 04:24:45;;;;;;;12.83;1.53;;;9.30;99.90;;;;;;5018830;28;20261;-82
2024/04/02 04:27:28;;;;;;;13.87;1.30;;;9.30;99.90;;;;;;5019270;28;20248;-81
2024/04/02 04:30:01;;;;;;;13.00;1.30;;;9.30;99.90;;;;;;5036271;28;20150;-82
2024/04/02 04:32:50;;;;;;;16.65;1.70;;;9.40;99.90;;;;;;5036365;28;20188;-82
2024/04/02 04:35:28;;;;;;;17.73;1.90;;;9.40;99.90;;;;;;5035473;28;20185;-82
2024/04/02 04:37:59;;;;;;;12.70;1.38;;;9.40;99.90;;;;;;5035665;28;20169;-82
2024/04/02 04:40:44;;;;;;;13.60;1.40;;;9.40;99.90;;;;;;5018337;28;20257;-82
2024/04/02 04:43:38;;;;;;;13.77;1.58;;;9.50;99.90;;;;;;5017845;28;20192;-82
2024/04/02 04:46:38;;;;;;;18.77;1.90;;;9.40;99.90;;;;;;5035853;28;20213;-82
2024/04/02 04:49:04;;;;;;;13.20;1.70;;;9.50;99.90;;;;;;4951452;28;20547;-82
2024/04/02 04:51:29;;;;;;;15.00;1.47;;;9.50;99.90;;;;;;5036026;28;20181;-81
2024/04/02 04:54:03;;;;;;;15.00;1.97;;;9.50;99.90;;;;;;5036027;28;20635;-81
2024/04/02 04:56:31;;;;;;;16.65;1.70;;;9.50;99.90;;;;;;5017707;28;20216;-82
2024/04/02 04:58:59;;;;;;;14.50;1.88;;;9.50;99.90;;;;;;5034777;28;20535;-81
2024/04/02 05:01:31;;;;;;;12.90;1.80;;;9.50;99.90;;;;;;5017807;28;20197;-81
2024/04/02 05:04:14;;;;;;;;;;;;;;;;;;;;;
2024/04/02 05:06:42;;;;;;;20.20;2.03;;;9.50;99.90;;;;;;5036088;28;20199;-82
2024/04/02 05:09:11;;;;;;;16.83;1.55;;;9.50;99.90;;;;;;5035267;28;20692;-82
2024/04/02 05:11:40;;;;;;;14.23;1.58;;;9.50;99.90;;;;;;5035185;28;20178;-82
2024/04/02 05:14:06;;;;;;;14.25;1.45;;;9.50;99.90;;;;;;5035434;28;20710;-82
2024/04/02 05:16:35;;;;;;;13.57;1.70;;;9.50;99.90;;;;;;5070125;23;20218;-82
2024/04/02 05:19:01;;;;;;;12.68;1.60;;;9.60;99.90;;;;;;5014414;28;20238;-82
2024/04/02 05:21:27;;;;;;;19.63;2.30;;;9.60;99.90;;;;;;5015256;28;20191;-82
2024/04/02 05:23:53;;;;;;;14.27;1.63;;;9.60;99.90;;;;;;5014729;28;20242;-82
2024/04/02 05:26:18;;;;;;;13.53;1.83;;;9.60;99.90;;;;;;5014462;28;20199;-82
2024/04/02 05:28:44;;;;;;;13.53;1.67;;;9.70;99.90;;;;;;5014405;28;20151;-80
2024/04/02 05:31:16;;;;;;;12.93;1.33;;;9.70;99.90;;;;;;5015644;28;20234;-81
2024/04/02 05:33:43;;;;;;;13.82;1.48;;;9.70;99.90;;;;;;5014245;28;20428;-80
2024/04/02 05:36:08;;;;;;;15.43;1.63;;;9.70;99.90;;;;;;5014756;28;20170;-81
2024/04/02 05:38:34;;;;;;;14.17;1.73;;;9.70;99.90;;;;;;5015069;28;20173;-81
2024/04/02 05:41:00;;;;;;;14.90;1.30;;;9.70;99.90;;;;;;5014297;28;20245;-81
2024/04/02 05:43:27;;;;;;;13.10;1.70;;;9.80;99.90;;;;;;5014083;28;20166;-81
2024/04/02 05:45:53;;;;;;;13.35;1.65;;;9.80;99.90;;;;;;5014639;28;20549;-81
2024/04/02 05:48:19;;;;;;;13.55;1.58;;;9.90;99.90;;;;;;4997225;28;20174;-82
2024/04/02 05:50:55;;;;;;;14.10;1.17;;;9.80;99.90;;;;;;5013999;28;20165;-82
2024/04/02 05:53:21;;;;;;;17.60;1.80;;;9.90;99.90;;;;;;5013349;28;20401;-86
2024/04/02 05:55:47;;;;;;;15.00;1.30;;;9.90;99.90;;;;;;5015646;28;20159;-84
2024/04/02 05:58:13;;;;;;;13.10;1.30;;;9.90;99.90;;;;;;5018068;28;20475;-85
2024/04/02 06:00:38;;;;;;;12.73;1.30;;;9.90;99.90;;;;;;5000916;28;20167;-85
2024/04/02 06:03:04;;;;;;;14.50;1.70;;;9.90;99.90;;;;;;5018666;28;20555;-85
2024/04/02 06:05:33;;;;;;;14.20;1.23;;;10.00;99.90;;;;;;5018822;28;20236;-85
2024/04/02 06:07:58;;;;;;;13.20;1.00;;;10.00;99.90;;;;;;5000353;28;20221;-84
2024/04/02 06:10:26;;;;;;;12.23;1.30;;;10.10;99.90;;;;;;5020488;28;20178;-85
2024/04/02 06:12:52;;;;;;;13.80;1.92;;;10.00;99.90;;;;;;5021469;28;20190;-84
2024/04/02 06:15:27;;;;;;;13.53;1.10;;;10.00;99.90;;;;;;5021970;28;20182;-84
2024/04/02 06:17:53;;;;;;;15.32;1.38;;;10.00;99.90;;;;;;5021351;28;20495;-85
2024/04/02 06:20:18;;;;;;;12.50;1.20;;;10.10;99.90;;;;;;5020734;28;20222;-88
2024/04/02 06:22:44;;;;;;;12.27;1.00;;;10.10;99.90;;;;;;4998918;28;20459;-89
2024/04/02 06:25:13;;;;;;;13.30;1.00;;;10.10;99.90;;;;;;5016797;28;20193;-90
2024/04/02 06:27:40;;;;;;;13.00;1.10;;;10.10;99.90;;;;;;4999396;28;20158;-90
2024/04/02 06:30:06;;;;;;;12.40;1.05;;;10.20;99.90;;;;;;5000368;28;20250;-84
2024/04/02 06:32:32;;;;;;;19.58;1.35;;;10.30;99.90;;;;;;5023981;28;20190;-83
2024/04/02 06:34:58;;;;;;;13.50;2.00;;;10.40;99.90;;;;;;5027355;28;20170;-83
2024/04/02 06:37:23;;;;;;;14.30;2.23;;;10.40;99.90;;;;;;5026686;28;20151;-83
2024/04/02 06:39:49;;;;;;;12.20;1.07;;;10.50;99.90;;;;;;5025709;28;20167;-83
2024/04/02 06:42:15;;;;;;;16.03;1.90;;;10.60;99.90;;;;;;5024067;28;20705;-82
2024/04/02 06:44:40;;;;;;;17.97;1.73;;;10.60;99.50;;;;;;5002995;28;20317;-82
2024/04/02 06:47:06;;;;;;;16.73;1.47;;;10.70;97.40;;;;;;5020283;28;20202;-82
2024/04/02 06:49:32;;;;;;;15.90;1.10;;;10.70;97.80;;;;;;5002102;28;20709;-84
2024/04/02 06:51:57;;;;;;;20.97;1.50;;;10.60;92.60;;;;;;5018784;28;20938;-84
2024/04/02 06:54:23;;;;;;;15.80;1.43;;;10.60;92.70;;;;;;5018934;28;20250;-82
2024/04/02 06:56:48;;;;;;;16.70;1.30;;;10.50;86.50;;;;;;5018768;28;20194;-82
2024/04/02 06:59:14;;;;;;;16.40;1.43;;;10.60;83.10;;;;;;5019816;28;20171;-82
2024/04/02 07:01:40;;;;;;;17.60;1.60;;;10.60;79.70;;;;;;5001459;28;20746;-82
2024/04/02 07:04:07;;;;;;;24.33;1.70;;;10.70;73.10;;;;;;5000885;28;20603;-82
2024/04/02 07:06:33;;;;;;;18.95;2.13;;;10.70;41.10;;;;;;5017977;28;20190;-82
2024/04/02 07:08:59;;;;;;;14.50;1.50;;;10.70;32.50;;;;;;5018232;28;20501;-82
2024/04/02 07:11:25;;;;;;;19.58;1.95;;;10.70;32.50;;;;;;5000181;28;20476;-82
2024/04/02 07:13:51;;;;;;;15.73;1.60;;;10.80;36.40;;;;;;5017686;28;20174;-82
2024/04/02 07:16:16;;;;;;;12.60;1.13;;;10.80;22.00;;;;;;5017313;28;20205;-82
2024/04/02 07:18:42;;;;;;;14.20;1.20;;;10.80;10.30;;;;;;5000083;28;20174;-81
2024/04/02 07:21:08;;;;;;;13.20;1.10;;;10.80;12.10;;;;;;5017747;28;20198;-82
2024/04/02 07:23:36;;;;;;;15.18;1.60;;;10.80;21.20;;;;;;5019668;28;20166;-82
2024/04/02 07:26:02;;;;;;;14.40;1.42;;;10.90;19.50;;;;;;5017804;28;20682;-82
2024/04/02 07:28:30;;;;;;;18.23;1.55;;;10.90;12.20;;;;;;5001720;28;20225;-81
2024/04/02 07:30:55;;;;;;;14.55;1.20;;;11.00;5.10;;;;;;5020623;28;20245;-83
2024/04/02 07:33:22;;;;;;;15.23;1.70;;;11.10;1.00;;;;;;5020516;28;20213;-82
2024/04/02 07:35:48;;;;;;;19.23;1.83;;;11.20;1.00;;;;;;5019524;28;20191;-82
2024/04/02 07:38:14;;;;;;;13.82;1.10;;;11.20;1.00;;;;;;5018974;28;20174;-82
2024/04/02 07:40:41;;;;;;;13.77;1.42;;;11.30;1.00;;;;;;5018442;28;20644;-83
2024/04/02 07:43:06;;;;;;;20.13;1.58;;;11.30;1.00;;;;;;5019080;28;20195;-82
2024/04/02 07:45:36;;;;;;;14.23;1.73;;;11.30;1.00;;;;;;5019003;28;20317;-82
2024/04/02 07:48:03;;;;;;;14.02;1.27;;;11.40;1.00;;;;;;5000333;28;20181;-82
2024/04/02 07:50:34;;;;;;;15.38;1.48;;;11.50;1.00;;;;;;5017690;28;20166;-82
2024/04/02 07:53:00;;;;;;;15.43;1.52;;;11.60;1.00;;;;;;5000374;28;20560;-82
2024/04/02 07:55:26;;;;;;;16.10;1.67;;;11.70;1.00;;;;;;5017862;28;20167;-82
2024/04/02 07:57:52;;;;;;;17.73;1.63;;;11.80;1.00;;;;;;5020168;28;20413;-83
2024/04/02 08:00:18;;;;;;;14.77;1.50;;;11.90;1.00;;;;;;5020818;28;20170;-83
2024/04/02 08:02:47;;;;;;;14.60;1.30;;;11.80;1.00;;;;;;5021089;28;20433;-83
2024/04/02 08:05:13;;;;;;;15.45;1.30;;;11.80;1.00;;;;;;5022646;28;20191;-83
2024/04/02 08:07:49;;;;;;;14.35;1.30;;;11.80;1.00;;;;;;5022384;28;20163;-83
2024/04/02 08:10:15;;;;;;;14.98;1.35;;;11.90;1.00;;;;;;5022957;28;20142;-83
2024/04/02 08:12:41;;;;;;;15.03;1.70;;;11.90;1.00;;;;;;5022143;28;20261;-83
2024/04/02 08:15:07;;;;;;;18.05;2.17;;;11.90;1.00;;;;;;5004719;28;20683;-83
2024/04/02 08:17:33;;;;;;;15.25;1.65;;;11.90;1.00;;;;;;5021985;28;20186;-83
2024/04/02 08:19:59;;;;;;;14.85;1.65;;;12.00;1.00;;;;;;5017901;28;20171;-81
2024/04/02 08:22:25;;;;;;;20.93;1.50;;;12.10;1.00;;;;;;4999299;28;20285;-83
2024/04/02 08:24:53;;;;;;;12.90;1.30;;;12.30;1.00;;;;;;5016744;28;20591;-82
2024/04/02 08:27:19;;;;;;;19.02;2.05;;;12.40;1.00;;;;;;5017170;28;20698;-83
2024/04/02 08:29:45;;;;;;;15.20;1.63;;;12.40;1.00;;;;;;5016549;28;20170;-82
2024/04/02 08:32:10;;;;;;;13.90;1.35;;;12.50;1.00;;;;;;5015917;28;20206;-82
2024/04/02 08:34:39;;;;;;;19.00;1.80;;;12.60;1.00;;;;;;5016262;28;20668;-83
2024/04/02 08:37:05;;;;;;;16.30;1.52;;;12.60;1.00;;;;;;4999076;28;20181;-82
2024/04/02 08:39:30;;;;;;;16.67;1.40;;;12.70;1.00;;;;;;5017974;28;20175;-83
2024/04/02 08:42:03;;;;;;;14.77;1.60;;;12.80;1.00;;;;;;5017401;28;20217;-82
2024/04/02 08:44:31;;;;;;;13.57;1.50;;;12.90;1.00;;;;;;5017100;28;20631;-83
2024/04/02 08:46:58;;;;;;;15.80;1.33;;;13.00;1.00;;;;;;5016362;28;20198;-82
2024/04/02 08:49:24;;;;;;;15.32;1.27;;;13.00;1.00;;;;;;5016087;28;20241;-82
2024/04/02 08:51:50;;;;;;;13.25;1.00;;;13.00;1.00;;;;;;5015364;28;20182;-82
2024/04/02 08:54:16;;;;;;;15.10;1.40;;;13.00;1.00;;;;;;5015799;28;20698;-82
2024/04/02 08:56:42;;;;;;;14.03;1.60;;;12.90;1.00;;;;;;5016872;28;20416;-82
2024/04/02 08:59:09;;;;;;;13.30;1.02;;;12.90;1.00;;;;;;5015689;28;20166;-82
2024/04/02 09:01:36;;;;;;;17.02;3.05;;;12.90;1.00;;;;;;5015866;28;20182;-82
2024/04/02 09:04:05;;;;;;;13.60;1.20;;;13.00;1.00;;;;;;5016547;28;20170;-82
2024/04/02 09:06:30;;;;;;;16.40;1.50;;;13.00;1.00;;;;;;5019799;28;20190;-83
2024/04/02 09:08:56;;;;;;;13.90;1.20;;;13.10;1.00;;;;;;5022795;28;20815;-83
2024/04/02 09:11:24;;;;;;;13.70;1.30;;;13.10;1.00;;;;;;5022531;28;20655;-83
2024/04/02 09:13:50;;;;;;;16.95;1.45;;;13.10;1.00;;;;;;5021786;28;20464;-83
2024/04/02 09:16:16;;;;;;;13.50;1.40;;;13.10;1.00;;;;;;5022353;28;20242;-83
2024/04/02 09:18:45;;;;;;;14.10;1.03;;;13.00;1.00;;;;;;5004588;28;20612;-83
2024/04/02 09:21:12;;;;;;;14.52;1.50;;;13.00;1.00;;;;;;5023280;28;20429;-83
2024/04/02 09:23:38;;;;;;;13.48;1.10;;;12.90;1.00;;;;;;5006457;28;20171;-83
2024/04/02 09:26:08;;;;;;;12.47;0.87;;;12.90;1.00;;;;;;5004013;28;20192;-83
2024/04/02 09:28:38;;;;;;;13.20;1.30;;;12.90;1.00;;;;;;5019928;28;20536;-83
2024/04/02 09:31:03;;;;;;;13.23;1.10;;;12.90;1.00;;;;;;5020477;28;20181;-83
2024/04/02 09:33:31;;;;;;;12.50;0.97;;;13.00;1.00;;;;;;5020368;28;20254;-83
2024/04/02 09:36:06;;;;;;;14.68;1.10;;;13.10;1.00;;;;;;5020465;28;20627;-85
2024/04/02 09:38:34;;;;;;;14.07;0.80;;;13.20;1.00;;;;;;5018493;28;20154;-85
2024/04/02 09:41:00;;;;;;;14.25;1.15;;;13.30;1.00;;;;;;5003128;28;20198;-85
2024/04/02 09:43:32;;;;;;;14.13;1.15;;;13.30;1.00;;;;;;5019390;28;20170;-85
2024/04/02 09:46:05;;;;;;;13.45;1.20;;;13.10;1.00;;;;;;5022839;28;20242;-85
2024/04/02 09:48:33;;;;;;;12.75;0.80;;;13.10;1.00;;;;;;5022604;28;20161;-85
2024/04/02 09:51:01;;;;;;;12.95;0.90;;;13.20;1.00;;;;;;5021736;28;20248;-85
2024/04/02 09:53:28;;;;;;;12.43;0.98;;;13.30;1.00;;;;;;5021929;28;20163;-84
2024/04/02 09:55:59;;;;;;;14.02;0.70;;;13.30;1.00;;;;;;5019164;28;20246;-84
2024/04/02 09:58:25;;;;;;;12.68;0.85;;;13.60;1.00;;;;;;5019734;28;20185;-84
2024/04/02 10:00:54;;;;;;;12.93;0.80;;;13.70;1.00;;;;;;5019254;28;20647;-84
2024/04/02 10:03:24;;;;;;;12.80;0.83;;;13.90;1.00;;;;;;5019008;28;20175;-84
2024/04/02 10:05:51;;;;;;;16.80;1.77;;;14.10;1.00;;;;;;5001448;28;20441;-84
2024/04/02 10:08:27;;;;;;;16.70;1.10;;;14.30;1.00;;;;;;5018595;28;20405;-84
2024/04/02 10:10:55;;;;;;;12.90;1.00;;;14.50;1.00;;;;;;5018954;28;20409;-84
2024/04/02 10:13:20;;;;;;;12.80;1.07;;;14.40;1.00;;;;;;5019095;28;20408;-84
2024/04/02 10:15:55;;;;;;;13.43;1.10;;;14.30;1.00;;;;;;5001197;28;20934;-84
2024/04/02 10:18:21;;;;;;;18.30;0.90;;;14.10;1.00;;;;;;5019627;28;20713;-84
2024/04/02 10:20:56;;;;;;;12.77;1.00;;;13.90;1.00;;;;;;5019148;28;20409;-85
2024/04/02 10:23:22;;;;;;;13.38;0.80;;;13.70;1.00;;;;;;5002110;28;20416;-85
2024/04/02 10:25:52;;;;;;;12.25;0.90;;;13.60;1.00;;;;;;5001338;28;20623;-84
2024/04/02 10:28:30;;;;;;;12.25;0.80;;;13.50;1.00;;;;;;5019020;28;20170;-84
2024/04/02 10:30:57;;;;;;;16.53;1.90;;;13.50;1.00;;;;;;5019542;28;20242;-84
2024/04/02 10:33:28;;;;;;;16.03;1.20;;;13.50;1.00;;;;;;5019219;28;20402;-85
2024/04/02 10:35:54;;;;;;;14.20;1.07;;;13.50;1.00;;;;;;5019896;28;20390;-83
2024/04/02 10:38:20;;;;;;;14.40;0.80;;;13.60;1.00;;;;;;5001860;28;20421;-84
2024/04/02 10:40:48;;;;;;;12.40;0.77;;;13.50;1.00;;;;;;5019054;28;20471;-85
2024/04/02 10:43:14;;;;;;;13.38;0.90;;;13.60;1.00;;;;;;5007219;28;20413;-85
2024/04/02 10:45:40;;;;;;;12.50;0.90;;;13.50;1.00;;;;;;5025705;28;20229;-85
2024/04/02 10:48:06;;;;;;;12.80;0.73;;;13.70;1.00;;;;;;5024821;28;20460;-85
2024/04/02 10:50:32;;;;;;;15.77;1.13;;;13.80;1.00;;;;;;5024899;28;20401;-85
2024/04/02 10:52:57;;;;;;;15.17;0.90;;;14.10;1.00;;;;;;5025026;28;20190;-85
2024/04/02 10:55:24;;;;;;;13.03;0.90;;;14.40;1.00;;;;;;5025594;28;20193;-85
2024/04/02 10:57:50;;;;;;;13.20;0.90;;;14.50;1.00;;;;;;5008495;28;20202;-85
2024/04/02 11:00:16;;;;;;;12.60;0.90;;;14.40;1.00;;;;;;5025207;28;20411;-85
2024/04/02 11:02:43;;;;;;;12.70;0.80;;;14.30;1.00;;;;;;5025198;28;20197;-86
2024/04/02 11:05:14;;;;;;;13.27;1.00;;;14.00;1.00;;;;;;5024715;28;20186;-85
2024/04/02 11:07:41;;;;;;;13.10;0.90;;;14.00;1.00;;;;;;5024992;28;20416;-85
2024/04/02 11:10:07;;;;;;;13.87;1.00;;;14.00;1.00;;;;;;5025223;28;20786;-83
2024/04/02 11:12:33;;;;;;;13.80;0.93;;;13.90;1.00;;;;;;5008031;28;20482;-84
2024/04/02 11:15:02;;;;;;;12.77;1.00;;;13.80;1.00;;;;;;5115555;22;20225;-83
2024/04/02 11:17:28;;;;;;;14.33;1.10;;;13.90;1.00;;;;;;5018751;28;20773;-82
2024/04/02 11:19:56;;;;;;;12.37;0.70;;;13.90;1.00;;;;;;5036497;28;20820;-82
2024/04/02 11:25:11;;;;;;;12.10;0.80;;;13.80;1.00;;;;;;5036585;28;20248;-83
2024/04/02 11:27:38;;;;;;;13.17;0.97;;;13.80;1.00;;;;;;5018297;28;20500;-82
2024/04/02 11:30:04;;;;;;;13.40;1.00;;;13.70;1.00;;;;;;5035700;28;20401;-82
2024/04/02 11:32:30;;;;;;;12.37;0.80;;;13.60;1.00;;;;;;5035559;28;20474;-83
2024/04/02 11:35:16;;;;;;;12.30;0.83;;;13.60;1.00;;;;;;5035650;28;20447;-81
2024/04/02 11:37:45;;;;;;;12.27;0.80;;;13.70;1.00;;;;;;5018248;28;20483;-81
2024/04/02 11:40:15;;;;;;;16.00;0.90;;;13.70;1.00;;;;;;5035396;28;20166;-81
2024/04/02 11:42:41;;;;;;;12.82;1.02;;;13.60;1.00;;;;;;5035600;28;20507;-82
2024/04/02 11:45:08;;;;;;;13.47;1.23;;;13.60;1.00;;;;;;5035462;28;20187;-82
2024/04/02 11:47:37;;;;;;;13.40;0.87;;;13.50;1.00;;;;;;5035699;28;20950;-82
2024/04/02 11:50:04;;;;;;;13.50;1.30;;;13.40;1.00;;;;;;5035162;28;20393;-83
2024/04/02 11:52:32;;;;;;;13.60;1.05;;;13.30;1.00;;;;;;5035646;28;20189;-83
2024/04/02 11:54:57;;;;;;;13.27;0.90;;;13.40;9.60;;;;;;5017355;28;20200;-82
2024/04/02 12:00:17;;;;;;;12.97;1.00;;;13.30;18.00;;;;;;5035884;28;20176;-83
2024/04/02 12:02:45;;;;;;;12.15;0.77;;;13.30;18.00;;;;;;5017325;28;20428;-83
2024/04/02 12:05:11;;;;;;;11.95;0.70;;;13.20;8.40;;;;;;5017308;28;20251;-83
2024/04/02 12:07:37;;;;;;;13.73;0.80;;;13.10;21.80;;;;;;5034096;28;20170;-83
2024/04/02 12:10:07;;;;;;;13.45;0.80;;;13.00;40.00;;;;;;5017340;28;20405;-82
2024/04/02 12:12:34;;;;;;;18.30;1.10;;;13.10;36.40;;;;;;5034660;28;20256;-83
2024/04/02 12:15:01;;;;;;;12.63;1.08;;;13.10;39.00;;;;;;5034828;28;20180;-82
2024/04/02 12:17:27;;;;;;;13.65;1.45;;;13.10;46.90;;;;;;5016721;28;20754;-81
2024/04/02 12:19:57;;;;;;;12.83;1.17;;;13.20;48.70;;;;;;5034608;28;20178;-81
2024/04/02 12:22:24;;;;;;;13.68;1.13;;;13.20;64.10;;;;;;5016815;28;20185;-82
2024/04/02 12:24:49;;;;;;;13.13;1.20;;;13.20;64.30;;;;;;5017198;28;20224;-81
2024/04/02 12:27:16;;;;;;;16.37;1.30;;;13.30;59.00;;;;;;5034310;28;20451;-82
2024/04/02 12:29:44;;;;;;;13.70;1.50;;;13.30;59.20;;;;;;5016708;28;20428;-82
2024/04/02 12:32:11;;;;;;;12.93;1.50;;;13.20;74.10;;;;;;5034615;28;20181;-81
2024/04/02 12:34:45;;;;;;;12.80;1.02;;;13.20;70.70;;;;;;5016639;28;20173;-81
2024/04/02 12:37:11;;;;;;;15.35;1.10;;;13.20;59.90;;;;;;5034337;28;20200;-81
2024/04/02 12:39:41;;;;;;;14.40;1.00;;;13.10;28.00;;;;;;5034400;28;20545;-83
2024/04/02 12:42:08;;;;;;;12.23;0.80;;;13.10;41.80;;;;;;5034344;28;20186;-82
2024/04/02 12:44:34;;;;;;;13.47;1.13;;;13.10;35.80;;;;;;5016557;28;20228;-81
2024/04/02 12:47:00;;;;;;;14.13;1.90;;;13.20;30.00;;;;;;5016378;28;20499;-81
2024/04/02 12:49:26;;;;;;;13.97;0.93;;;13.40;24.90;;;;;;5034104;28;20162;-82
2024/04/02 12:51:52;;;;;;;13.57;0.95;;;13.60;35.50;;;;;;5033994;28;20182;-81